Time;durP1;ratioP1;P1;durP2;ratioP2;P2;SDS_P1;SDS_P2;PMS_P1;PMS_P2;Temp;Humidity;BMP_temperature;BMP_pressure;BME280_temperature;BME280_humidity;BME280_pressure;Samples;Min_cycle;Max_cycle;Signal;HPM_P1;HPM_P2
2023/03/02 00:01:50;;;;;;;24.77;12.20;;;6.40;45.70;;;;;;5006250;28;20473;-85
2023/03/02 00:04:20;;;;;;;24.97;11.97;;;6.50;45.60;;;;;;5017531;28;20453;-86
2023/03/02 00:06:50;;;;;;;28.70;13.77;;;6.30;45.70;;;;;;5035589;28;20947;-85
2023/03/02 00:09:18;;;;;;;19.90;11.47;;;6.40;45.70;;;;;;4990139;28;20944;-84
2023/03/02 00:11:45;;;;;;;23.40;10.53;;;6.60;45.30;;;;;;5009098;28;20472;-84
2023/03/02 00:14:12;;;;;;;20.77;11.70;;;6.60;44.90;;;;;;5031311;28;20449;-84
2023/03/02 00:16:40;;;;;;;23.77;12.37;;;6.70;45.00;;;;;;4988047;28;20466;-85
2023/03/02 00:19:06;;;;;;;31.73;13.87;;;6.60;44.60;;;;;;5031158;28;21204;-84
2023/03/02 00:21:33;;;;;;;29.67;13.97;;;6.40;45.50;;;;;;4997281;28;21183;-85
2023/03/02 00:24:02;;;;;;;26.60;12.30;;;6.30;44.80;;;;;;5013086;28;20442;-85
2023/03/02 00:26:28;;;;;;;26.43;13.23;;;6.30;45.60;;;;;;4998889;28;20883;-87
2023/03/02 00:28:55;;;;;;;24.87;12.20;;;6.20;45.40;;;;;;4982896;28;20532;-85
2023/03/02 00:31:22;;;;;;;23.03;12.77;;;6.20;45.20;;;;;;5020302;28;20474;-84
2023/03/02 00:33:50;;;;;;;23.93;12.40;;;6.10;44.90;;;;;;4995666;28;20449;-84
2023/03/02 00:36:17;;;;;;;26.47;13.40;;;6.10;45.20;;;;;;5034235;28;20494;-85
2023/03/02 00:38:44;;;;;;;26.70;12.87;;;6.20;45.60;;;;;;5028597;28;20998;-84
2023/03/02 00:41:14;;;;;;;29.13;13.90;;;6.20;45.40;;;;;;5012151;28;20488;-83
2023/03/02 00:43:42;;;;;;;29.70;13.90;;;6.20;45.00;;;;;;5030529;28;20706;-84
2023/03/02 00:46:10;;;;;;;26.27;12.93;;;6.20;44.70;;;;;;5021672;28;20437;-87
2023/03/02 00:48:38;;;;;;;18.00;12.27;;;6.00;44.80;;;;;;5008102;28;20453;-85
2023/03/02 00:51:06;;;;;;;26.47;12.80;;;5.50;45.50;;;;;;5005713;28;20478;-83
2023/03/02 00:53:34;;;;;;;28.50;13.00;;;5.40;45.80;;;;;;4993336;28;20457;-85
2023/03/02 00:56:02;;;;;;;25.40;12.40;;;5.40;46.60;;;;;;4997259;28;20463;-85
2023/03/02 00:58:31;;;;;;;21.90;11.60;;;5.50;46.50;;;;;;5039450;28;20456;-85
2023/03/02 01:01:03;;;;;;;31.40;12.90;;;5.70;46.50;;;;;;5008406;28;20556;-85
2023/03/02 01:03:32;;;;;;;24.47;12.33;;;5.90;46.10;;;;;;5001206;28;20476;-84
2023/03/02 01:05:59;;;;;;;22.37;10.93;;;6.00;45.60;;;;;;5006503;28;20446;-83
2023/03/02 01:08:26;;;;;;;28.97;11.73;;;5.90;45.40;;;;;;5022379;28;20450;-84
2023/03/02 01:10:53;;;;;;;25.13;12.73;;;5.80;45.30;;;;;;5020145;28;20444;-85
2023/03/02 01:13:20;;;;;;;34.33;13.40;;;5.70;45.70;;;;;;5007824;28;20457;-85
2023/03/02 01:15:49;;;;;;;25.77;13.70;;;5.60;46.10;;;;;;5017152;28;20525;-87
2023/03/02 01:18:16;;;;;;;26.10;12.83;;;5.70;46.10;;;;;;5005950;28;20457;-85
2023/03/02 01:20:42;;;;;;;26.33;11.27;;;5.80;46.20;;;;;;5021881;28;20458;-85
2023/03/02 01:23:09;;;;;;;26.70;12.90;;;5.80;46.00;;;;;;4994675;28;20454;-88
2023/03/02 01:25:37;;;;;;;26.80;11.90;;;5.80;45.70;;;;;;5011007;28;20835;-85
2023/03/02 01:28:04;;;;;;;23.57;11.27;;;5.80;46.20;;;;;;5019372;28;20622;-85
2023/03/02 01:30:31;;;;;;;23.53;11.30;;;5.90;46.20;;;;;;4991300;28;20453;-85
2023/03/02 01:33:00;;;;;;;26.00;12.23;;;6.00;45.80;;;;;;5036081;28;20470;-85
2023/03/02 01:35:26;;;;;;;21.27;12.03;;;6.00;45.60;;;;;;4982757;28;20434;-85
2023/03/02 01:37:53;;;;;;;25.13;11.47;;;6.00;46.20;;;;;;5001227;28;20466;-84
2023/03/02 01:40:20;;;;;;;28.43;13.07;;;6.00;46.10;;;;;;5019487;28;20478;-88
2023/03/02 01:42:56;;;;;;;24.17;11.43;;;6.10;46.00;;;;;;5012922;28;20480;-85
2023/03/02 01:45:50;;;;;;;27.20;13.03;;;6.00;45.90;;;;;;5008175;28;20461;-85
2023/03/02 01:48:27;;;;;;;18.87;11.00;;;6.00;46.00;;;;;;4993668;28;20476;-83
2023/03/02 01:50:56;;;;;;;23.23;11.57;;;6.00;45.80;;;;;;5007431;28;20446;-85
2023/03/02 01:53:25;;;;;;;21.77;11.23;;;5.80;46.00;;;;;;5016017;28;20821;-85
2023/03/02 01:55:53;;;;;;;23.40;11.07;;;5.50;46.60;;;;;;5021252;28;21177;-88
2023/03/02 01:58:21;;;;;;;32.47;13.00;;;5.50;46.30;;;;;;5018395;28;20462;-86
2023/03/02 02:00:48;;;;;;;24.23;11.37;;;5.30;45.90;;;;;;5021302;28;20500;-85
2023/03/02 02:03:20;;;;;;;33.47;12.13;;;5.30;46.10;;;;;;4984078;28;20541;-86
2023/03/02 02:05:59;;;;;;;25.80;11.87;;;5.30;46.00;;;;;;5012730;28;20446;-85
2023/03/02 02:08:26;;;;;;;28.83;11.57;;;5.30;46.20;;;;;;4984552;28;20449;-84
2023/03/02 02:10:55;;;;;;;27.30;11.70;;;5.40;46.60;;;;;;4996670;28;20435;-88
2023/03/02 02:13:22;;;;;;;24.03;10.33;;;5.30;46.10;;;;;;4988672;28;20532;-86
2023/03/02 02:15:48;;;;;;;25.37;10.20;;;5.30;45.90;;;;;;5006756;28;20455;-85
2023/03/02 02:18:15;;;;;;;23.47;11.57;;;5.20;46.00;;;;;;5025917;28;20465;-89
2023/03/02 02:20:45;;;;;;;25.37;11.83;;;5.30;47.10;;;;;;5016395;28;20952;-85
2023/03/02 02:23:25;;;;;;;23.53;11.40;;;5.40;46.50;;;;;;4988447;28;21164;-86
2023/03/02 02:26:11;;;;;;;24.50;11.80;;;5.50;47.00;;;;;;4999457;28;20537;-86
2023/03/02 02:28:42;;;;;;;22.90;11.70;;;5.50;46.00;;;;;;5009642;28;20449;-85
2023/03/02 02:31:14;;;;;;;26.00;13.30;;;5.60;46.00;;;;;;5017261;28;20473;-85
2023/03/02 02:33:44;;;;;;;23.20;12.40;;;5.50;46.30;;;;;;4983585;28;20443;-84
2023/03/02 02:36:16;;;;;;;19.57;11.40;;;5.50;45.90;;;;;;5005303;28;20454;-83
2023/03/02 02:38:47;;;;;;;22.53;10.37;;;5.50;46.50;;;;;;4992625;28;20441;-84
2023/03/02 02:41:22;;;;;;;30.87;11.60;;;5.50;46.00;;;;;;5002451;28;20500;-85
2023/03/02 02:43:51;;;;;;;23.00;12.00;;;5.60;46.10;;;;;;5000418;28;20455;-84
2023/03/02 02:46:18;;;;;;;22.50;12.40;;;5.60;45.50;;;;;;4998885;28;20450;-85
2023/03/02 02:48:44;;;;;;;24.20;11.33;;;5.50;46.10;;;;;;5005441;28;20442;-85
2023/03/02 02:51:18;;;;;;;26.03;11.40;;;5.60;46.30;;;;;;5016193;28;20478;-84
2023/03/02 02:53:49;;;;;;;17.33;9.60;;;5.70;45.90;;;;;;4984676;28;20434;-84
2023/03/02 02:56:19;;;;;;;23.83;11.20;;;5.70;45.70;;;;;;5011608;28;20469;-84
2023/03/02 02:58:48;;;;;;;26.20;12.23;;;5.70;45.50;;;;;;5000757;28;20465;-84
2023/03/02 03:01:17;;;;;;;20.97;11.03;;;5.70;45.80;;;;;;5013389;28;20573;-83
2023/03/02 03:03:50;;;;;;;23.63;12.13;;;5.70;45.80;;;;;;5000157;28;20446;-84
2023/03/02 03:06:19;;;;;;;23.57;11.87;;;5.60;45.60;;;;;;4983371;28;20477;-84
2023/03/02 03:09:00;;;;;;;21.03;10.17;;;5.60;46.10;;;;;;5021401;28;20439;-84
2023/03/02 03:11:40;;;;;;;22.33;11.30;;;5.60;45.90;;;;;;5001835;28;20493;-85
2023/03/02 03:14:10;;;;;;;22.97;12.40;;;5.60;45.30;;;;;;4983827;28;20449;-84
2023/03/02 03:16:39;;;;;;;23.07;10.33;;;5.60;45.60;;;;;;4989177;28;20466;-84
2023/03/02 03:19:12;;;;;;;21.63;11.20;;;5.60;45.50;;;;;;4986201;28;20454;-84
2023/03/02 03:21:40;;;;;;;18.80;11.07;;;5.50;45.10;;;;;;5003274;28;21002;-86
2023/03/02 03:24:08;;;;;;;21.27;11.37;;;5.50;45.90;;;;;;5015898;28;20473;-83
2023/03/02 03:26:36;;;;;;;25.77;11.80;;;5.50;45.70;;;;;;4998189;28;20445;-84
2023/03/02 03:29:04;;;;;;;30.13;12.87;;;5.50;45.60;;;;;;4997288;28;20465;-83
2023/03/02 03:31:31;;;;;;;19.23;11.33;;;5.40;45.30;;;;;;4994997;28;20466;-84
2023/03/02 03:33:59;;;;;;;20.57;10.43;;;5.40;46.40;;;;;;4995447;28;20548;-85
2023/03/02 03:36:30;;;;;;;24.20;11.50;;;5.30;46.10;;;;;;4981958;28;20546;-85
2023/03/02 03:38:58;;;;;;;28.63;12.03;;;5.30;46.20;;;;;;4998033;28;20443;-85
2023/03/02 03:41:26;;;;;;;24.90;12.47;;;5.30;46.00;;;;;;5013112;28;20530;-85
2023/03/02 03:43:55;;;;;;;25.43;12.60;;;5.30;45.80;;;;;;5022310;28;20454;-84
2023/03/02 03:46:22;;;;;;;25.53;12.87;;;5.20;45.70;;;;;;4982948;28;20971;-84
2023/03/02 03:48:49;;;;;;;22.30;10.40;;;5.10;46.20;;;;;;5033705;28;20446;-84
2023/03/02 03:51:16;;;;;;;21.10;10.47;;;5.10;46.30;;;;;;4982911;28;20481;-85
2023/03/02 03:53:45;;;;;;;24.17;10.90;;;5.00;46.00;;;;;;4995005;28;20462;-84
2023/03/02 03:56:12;;;;;;;25.53;11.73;;;5.10;46.50;;;;;;4982630;28;20989;-84
2023/03/02 03:58:39;;;;;;;25.40;10.53;;;5.10;46.60;;;;;;5016729;28;20483;-85
2023/03/02 04:01:08;;;;;;;21.57;12.00;;;5.10;47.10;;;;;;5014974;28;20481;-84
2023/03/02 04:03:35;;;;;;;21.80;11.00;;;5.20;46.70;;;;;;4997376;28;20461;-85
2023/03/02 04:06:02;;;;;;;24.00;10.40;;;5.30;46.20;;;;;;4989484;28;20439;-85
2023/03/02 04:08:29;;;;;;;23.20;11.50;;;5.40;46.60;;;;;;5016195;28;20825;-83
2023/03/02 04:10:56;;;;;;;43.63;19.93;;;5.40;46.10;;;;;;4998738;28;20449;-84
2023/03/02 04:13:23;;;;;;;114.80;44.40;;;5.40;46.00;;;;;;4985843;28;20830;-83
2023/03/02 04:15:51;;;;;;;277.43;85.00;;;5.40;46.10;;;;;;5001971;28;20487;-85
2023/03/02 04:18:19;;;;;;;231.77;68.30;;;5.30;46.20;;;;;;5016008;28;20469;-85
2023/03/02 04:20:46;;;;;;;145.33;45.57;;;5.30;46.10;;;;;;4997694;28;20442;-83
2023/03/02 04:23:13;;;;;;;41.63;16.43;;;5.30;46.50;;;;;;4978810;28;20512;-85
2023/03/02 04:25:40;;;;;;;46.63;19.87;;;5.30;46.80;;;;;;4995461;28;20474;-85
2023/03/02 04:28:12;;;;;;;24.67;13.23;;;5.30;46.80;;;;;;5007061;28;20450;-85
2023/03/02 04:30:40;;;;;;;27.93;14.20;;;5.40;46.60;;;;;;5010253;28;20483;-85
2023/03/02 04:33:07;;;;;;;27.47;13.47;;;5.50;46.70;;;;;;5004658;28;20462;-85
2023/03/02 04:35:37;;;;;;;28.77;12.63;;;5.60;46.30;;;;;;4989141;28;20817;-86
2023/03/02 04:38:04;;;;;;;22.77;11.87;;;5.60;46.00;;;;;;5001229;28;21054;-84
2023/03/02 04:40:31;;;;;;;21.33;12.57;;;5.60;45.70;;;;;;4981504;28;20449;-84
2023/03/02 04:42:58;;;;;;;26.63;13.00;;;5.60;45.90;;;;;;4988452;28;20462;-84
2023/03/02 04:45:25;;;;;;;22.60;11.33;;;5.60;45.90;;;;;;5003350;28;20451;-85
2023/03/02 04:47:52;;;;;;;21.77;10.80;;;5.50;46.00;;;;;;5008177;28;20444;-84
2023/03/02 04:50:19;;;;;;;24.50;13.77;;;5.50;46.00;;;;;;4995808;28;21125;-84
2023/03/02 04:52:48;;;;;;;28.13;14.57;;;5.50;46.10;;;;;;5011521;28;20466;-84
2023/03/02 04:55:19;;;;;;;29.10;12.77;;;5.50;46.00;;;;;;5004748;28;22925;-85
2023/03/02 04:57:46;;;;;;;25.70;14.40;;;5.50;46.00;;;;;;5013238;28;20561;-84
2023/03/02 05:00:15;;;;;;;23.47;12.80;;;5.50;46.30;;;;;;5008330;28;20458;-85
2023/03/02 05:02:42;;;;;;;19.67;11.33;;;5.50;46.20;;;;;;4995206;28;20458;-83
2023/03/02 05:05:15;;;;;;;21.73;12.10;;;5.40;46.00;;;;;;4988538;28;20454;-85
2023/03/02 05:07:43;;;;;;;36.20;19.97;;;5.30;45.60;;;;;;5004991;28;20459;-84
2023/03/02 05:10:12;;;;;;;27.37;14.80;;;5.10;46.20;;;;;;5003309;28;20515;-84
2023/03/02 05:12:53;;;;;;;33.20;17.37;;;5.10;46.80;;;;;;5029875;28;20459;-84
2023/03/02 05:15:20;;;;;;;23.83;13.20;;;5.10;47.30;;;;;;5014467;28;20469;-85
2023/03/02 05:17:48;;;;;;;33.00;15.93;;;5.10;47.00;;;;;;5017850;28;20473;-81
2023/03/02 05:20:15;;;;;;;29.30;14.87;;;5.10;47.10;;;;;;5015422;28;20454;-85
2023/03/02 05:22:42;;;;;;;36.47;15.57;;;5.20;47.00;;;;;;5006176;28;20994;-84
2023/03/02 05:25:09;;;;;;;31.40;14.70;;;5.10;47.30;;;;;;5012787;28;20460;-84
2023/03/02 05:27:38;;;;;;;34.70;14.67;;;5.10;47.70;;;;;;4997965;28;20532;-85
2023/03/02 05:30:06;;;;;;;26.60;15.20;;;5.20;47.10;;;;;;5014123;28;20818;-85
2023/03/02 05:32:33;;;;;;;34.30;14.50;;;5.10;47.10;;;;;;4984410;28;20893;-85
2023/03/02 05:35:00;;;;;;;44.00;20.40;;;5.10;47.30;;;;;;4997825;28;20451;-85
2023/03/02 05:37:27;;;;;;;29.67;14.53;;;4.70;48.10;;;;;;4983199;28;20470;-85
2023/03/02 05:39:54;;;;;;;28.00;14.67;;;4.70;48.70;;;;;;4985091;28;20450;-85
2023/03/02 05:42:21;;;;;;;35.53;15.87;;;4.80;49.00;;;;;;5007077;28;21118;-85
2023/03/02 05:44:49;;;;;;;26.00;13.97;;;4.90;48.20;;;;;;5033139;28;21681;-85
2023/03/02 05:47:16;;;;;;;26.20;13.30;;;5.00;47.60;;;;;;5013794;28;20454;-84
2023/03/02 05:49:43;;;;;;;28.17;13.60;;;5.00;47.30;;;;;;5033768;28;20438;-85
2023/03/02 05:52:10;;;;;;;23.67;13.60;;;5.00;47.30;;;;;;4991366;28;21022;-86
2023/03/02 05:54:37;;;;;;;29.50;13.40;;;5.00;47.50;;;;;;5013082;28;20482;-84
2023/03/02 05:57:04;;;;;;;23.63;12.53;;;5.10;47.20;;;;;;5015366;28;20480;-84
2023/03/02 05:59:31;;;;;;;28.57;14.30;;;5.10;47.20;;;;;;5001212;28;20547;-84
2023/03/02 06:01:59;;;;;;;30.90;13.00;;;5.10;47.00;;;;;;5007203;28;20476;-84
2023/03/02 06:04:26;;;;;;;23.33;12.77;;;5.00;47.30;;;;;;5003377;28;20794;-85
2023/03/02 06:06:53;;;;;;;26.10;12.70;;;5.00;47.10;;;;;;4998495;28;20442;-82
2023/03/02 06:09:21;;;;;;;27.43;13.57;;;5.00;47.30;;;;;;5010497;28;20462;-85
2023/03/02 06:11:48;;;;;;;28.00;13.73;;;5.00;47.10;;;;;;4983041;28;21232;-84
2023/03/02 06:14:15;;;;;;;29.87;15.97;;;5.00;46.90;;;;;;4999932;28;20446;-85
2023/03/02 06:16:42;;;;;;;25.70;13.47;;;5.00;46.80;;;;;;5000468;28;20522;-85
2023/03/02 06:19:10;;;;;;;33.67;14.70;;;4.90;47.30;;;;;;4996919;28;20473;-85
2023/03/02 06:21:37;;;;;;;27.63;14.53;;;4.80;47.90;;;;;;5015798;28;20518;-85
2023/03/02 06:24:04;;;;;;;27.47;14.20;;;4.90;47.80;;;;;;4990643;28;20457;-83
2023/03/02 06:26:31;;;;;;;28.10;14.30;;;4.90;47.60;;;;;;5018219;28;20449;-85
2023/03/02 06:28:58;;;;;;;29.33;15.33;;;4.90;47.40;;;;;;4983643;28;20453;-84
2023/03/02 06:31:25;;;;;;;24.43;12.90;;;4.90;48.00;;;;;;5004728;28;20936;-87
2023/03/02 06:33:52;;;;;;;32.80;14.80;;;5.00;47.80;;;;;;5000640;28;20476;-85
2023/03/02 06:36:20;;;;;;;26.87;16.10;;;5.00;47.90;;;;;;5018146;28;20458;-83
2023/03/02 06:38:47;;;;;;;29.63;15.40;;;5.00;48.20;;;;;;4990472;28;21139;-86
2023/03/02 06:41:14;;;;;;;31.70;16.10;;;5.00;48.30;;;;;;5013219;28;20471;-86
2023/03/02 06:43:41;;;;;;;35.63;14.27;;;5.00;48.30;;;;;;5015204;28;20458;-83
2023/03/02 06:46:08;;;;;;;28.50;12.80;;;5.00;48.40;;;;;;5002402;28;20455;-87
2023/03/02 06:48:35;;;;;;;31.03;13.77;;;4.90;49.20;;;;;;5002357;28;20443;-86
2023/03/02 06:51:02;;;;;;;29.27;14.60;;;4.80;50.20;;;;;;5022653;28;20489;-86
2023/03/02 06:53:30;;;;;;;30.60;13.33;;;4.80;49.70;;;;;;5006055;28;20441;-86
2023/03/02 06:55:57;;;;;;;37.53;17.20;;;4.80;49.80;;;;;;4991429;28;20476;-85
2023/03/02 06:58:24;;;;;;;35.50;17.10;;;4.60;50.60;;;;;;5010712;28;20462;-85
2023/03/02 07:00:51;;;;;;;30.47;16.03;;;4.60;50.00;;;;;;4997268;28;20441;-86
2023/03/02 07:03:18;;;;;;;37.23;17.87;;;4.70;50.30;;;;;;5001185;28;20454;-86
2023/03/02 07:05:47;;;;;;;31.30;16.60;;;4.40;51.50;;;;;;5001527;28;20442;-86
2023/03/02 07:08:14;;;;;;;33.70;17.93;;;4.60;50.80;;;;;;4982089;28;20486;-86
2023/03/02 07:10:42;;;;;;;22.00;13.23;;;4.70;50.10;;;;;;4982030;28;20963;-87
2023/03/02 07:13:09;;;;;;;38.90;17.30;;;4.90;50.00;;;;;;4996059;28;20473;-87
2023/03/02 07:15:39;;;;;;;31.93;15.57;;;5.00;49.90;;;;;;5010660;28;20445;-85
2023/03/02 07:18:06;;;;;;;34.90;15.83;;;5.10;50.00;;;;;;5019038;28;20984;-86
2023/03/02 07:20:34;;;;;;;29.40;14.13;;;5.00;51.00;;;;;;5014372;28;20974;-86
2023/03/02 07:23:01;;;;;;;33.03;13.30;;;5.00;51.40;;;;;;4989457;28;20573;-86
2023/03/02 07:25:28;;;;;;;31.33;14.73;;;5.20;50.90;;;;;;5004224;28;20469;-87
2023/03/02 07:27:56;;;;;;;28.83;15.27;;;5.20;50.40;;;;;;5000262;28;21044;-86
2023/03/02 07:30:23;;;;;;;29.10;14.10;;;5.20;50.10;;;;;;5006295;28;20454;-86
2023/03/02 07:32:50;;;;;;;28.87;14.97;;;5.10;50.80;;;;;;5015442;28;20478;-86
2023/03/02 07:35:17;;;;;;;23.87;14.53;;;5.00;50.60;;;;;;5011866;28;20813;-87
2023/03/02 07:37:44;;;;;;;35.07;18.40;;;4.80;51.90;;;;;;5009129;28;20646;-86
2023/03/02 07:40:13;;;;;;;29.20;16.67;;;4.80;51.30;;;;;;5027649;28;20465;-86
2023/03/02 07:42:40;;;;;;;36.33;17.20;;;4.80;50.90;;;;;;5029906;28;20458;-86
2023/03/02 07:45:11;;;;;;;32.93;16.10;;;4.80;52.00;;;;;;5016123;28;20449;-86
2023/03/02 07:47:38;;;;;;;27.90;14.30;;;4.90;52.30;;;;;;5001321;28;20465;-85
2023/03/02 07:50:06;;;;;;;27.07;12.80;;;5.00;51.80;;;;;;5015051;28;20839;-83
2023/03/02 07:52:34;;;;;;;27.10;14.10;;;5.10;51.10;;;;;;5012139;28;20468;-86
2023/03/02 07:55:01;;;;;;;23.20;11.67;;;5.20;50.50;;;;;;4998026;28;20454;-86
2023/03/02 07:57:27;;;;;;;27.47;12.67;;;5.40;50.60;;;;;;4988133;28;20944;-87
2023/03/02 07:59:55;;;;;;;37.13;11.60;;;5.50;50.40;;;;;;5023578;28;20473;-86
2023/03/02 08:02:24;;;;;;;28.63;13.90;;;5.60;50.20;;;;;;5012854;28;20464;-86
2023/03/02 08:04:52;;;;;;;28.43;12.50;;;5.70;51.70;;;;;;5020899;28;20441;-86
2023/03/02 08:07:18;;;;;;;33.70;15.07;;;5.80;51.60;;;;;;5014086;28;20449;-86
2023/03/02 08:09:45;;;;;;;32.07;14.57;;;5.80;51.30;;;;;;5012631;28;20854;-86
2023/03/02 08:12:12;;;;;;;21.40;12.20;;;5.80;50.80;;;;;;5031453;28;20462;-86
2023/03/02 08:14:39;;;;;;;23.20;11.40;;;5.80;50.50;;;;;;4989737;28;20438;-83
2023/03/02 08:17:07;;;;;;;22.53;10.80;;;5.80;50.30;;;;;;5005336;28;20521;-86
2023/03/02 08:19:35;;;;;;;24.53;13.33;;;5.90;50.80;;;;;;5013773;28;20466;-84
2023/03/02 08:22:02;;;;;;;28.87;13.80;;;6.00;51.00;;;;;;5005281;28;20469;-86
2023/03/02 08:24:29;;;;;;;20.47;10.80;;;6.10;50.50;;;;;;5014803;28;20430;-86
2023/03/02 08:26:59;;;;;;;22.27;13.03;;;6.20;50.20;;;;;;4996837;28;20458;-87
2023/03/02 08:29:27;;;;;;;26.60;13.00;;;6.20;50.20;;;;;;4993979;28;20533;-86
2023/03/02 08:31:54;;;;;;;25.17;12.13;;;6.00;50.20;;;;;;5002143;28;20480;-86
2023/03/02 08:34:21;;;;;;;23.47;13.23;;;6.10;50.40;;;;;;4996861;28;20491;-86
2023/03/02 08:36:49;;;;;;;22.80;11.83;;;6.30;50.50;;;;;;4999144;28;20906;-87
2023/03/02 08:39:16;;;;;;;22.20;11.57;;;6.40;50.30;;;;;;4986768;28;20481;-87
2023/03/02 08:41:43;;;;;;;24.33;10.80;;;6.50;50.00;;;;;;5015487;28;20481;-86
2023/03/02 08:44:10;;;;;;;21.97;11.37;;;6.60;49.70;;;;;;5020667;28;20461;-86
2023/03/02 08:46:37;;;;;;;22.10;10.77;;;6.60;50.20;;;;;;5004856;28;20442;-88
2023/03/02 08:49:04;;;;;;;16.97;9.80;;;6.70;50.10;;;;;;4997120;28;20466;-87
2023/03/02 08:51:31;;;;;;;24.83;10.73;;;6.80;49.60;;;;;;5011546;28;20458;-86
2023/03/02 08:53:59;;;;;;;18.20;10.43;;;6.80;49.70;;;;;;5012493;28;20475;-86
2023/03/02 08:56:29;;;;;;;18.33;9.87;;;6.80;49.60;;;;;;5008954;28;20469;-87
2023/03/02 08:58:58;;;;;;;21.70;11.00;;;6.90;49.50;;;;;;4993969;28;20513;-87
2023/03/02 09:01:28;;;;;;;20.60;10.63;;;7.10;49.20;;;;;;5002705;28;20484;-86
2023/03/02 09:03:56;;;;;;;20.70;10.10;;;7.30;48.90;;;;;;5003074;28;20478;-85
2023/03/02 09:06:23;;;;;;;17.10;10.03;;;7.50;48.00;;;;;;5018423;28;20461;-85
2023/03/02 09:08:50;;;;;;;20.20;10.67;;;7.50;48.10;;;;;;5006237;28;20445;-86
2023/03/02 09:11:19;;;;;;;18.00;9.57;;;7.60;48.30;;;;;;5003503;28;20831;-86
2023/03/02 09:13:46;;;;;;;18.70;10.03;;;7.80;48.10;;;;;;5024416;28;20990;-88
2023/03/02 09:16:14;;;;;;;33.10;11.43;;;8.00;47.70;;;;;;5001000;28;20442;-88
2023/03/02 09:18:41;;;;;;;28.40;14.03;;;8.20;47.40;;;;;;4991334;28;20521;-86
2023/03/02 09:21:08;;;;;;;20.80;11.13;;;8.20;47.30;;;;;;5014306;28;20461;-88
2023/03/02 09:23:35;;;;;;;17.00;10.33;;;8.20;47.20;;;;;;4993662;28;20983;-87
2023/03/02 09:26:02;;;;;;;17.50;9.67;;;8.40;47.30;;;;;;4995969;28;20900;-88
2023/03/02 09:28:31;;;;;;;18.57;9.03;;;8.30;47.10;;;;;;5015529;28;20445;-86
2023/03/02 09:31:01;;;;;;;18.30;9.83;;;8.40;47.30;;;;;;5023070;28;20442;-87
2023/03/02 09:33:29;;;;;;;18.70;10.43;;;8.30;47.30;;;;;;4986433;28;20508;-87
2023/03/02 09:35:56;;;;;;;18.07;8.97;;;8.30;47.20;;;;;;4986090;28;20445;-86
2023/03/02 09:38:23;;;;;;;17.17;8.30;;;8.60;47.20;;;;;;5001010;28;20477;-86
2023/03/02 09:41:19;;;;;;;19.23;10.67;;;8.50;46.60;;;;;;4998995;28;20958;-86
2023/03/02 09:43:58;;;;;;;19.40;8.90;;;8.50;47.40;;;;;;4991443;28;20442;-85
2023/03/02 09:46:30;;;;;;;18.70;9.73;;;8.80;47.20;;;;;;5002885;28;20499;-86
2023/03/02 09:49:12;;;;;;;13.37;8.57;;;9.10;46.90;;;;;;4998947;28;20445;-86
2023/03/02 09:51:45;;;;;;;16.30;9.07;;;9.10;46.50;;;;;;5015872;28;20473;-87
2023/03/02 09:54:14;;;;;;;14.80;9.87;;;9.30;46.20;;;;;;4990523;28;20445;-88
2023/03/02 09:56:44;;;;;;;18.50;9.13;;;9.50;46.10;;;;;;4999435;28;20467;-88
2023/03/02 09:59:22;;;;;;;12.23;7.60;;;9.70;45.70;;;;;;5024099;28;20477;-87
2023/03/02 10:01:54;;;;;;;15.33;8.80;;;9.80;45.00;;;;;;5018281;28;20533;-84
2023/03/02 10:04:26;;;;;;;13.63;8.67;;;9.90;45.10;;;;;;5005238;28;20455;-86
2023/03/02 10:06:57;;;;;;;24.70;10.20;;;10.00;44.00;;;;;;5005998;28;20508;-89
2023/03/02 10:09:25;;;;;;;19.13;9.70;;;10.10;44.00;;;;;;5009639;28;20461;-88
2023/03/02 10:12:14;;;;;;;19.03;9.50;;;10.30;43.40;;;;;;5014355;28;20473;-87
2023/03/02 10:14:50;;;;;;;19.43;9.03;;;10.50;43.40;;;;;;5017668;28;20446;-86
2023/03/02 10:17:42;;;;;;;16.83;9.87;;;10.60;43.10;;;;;;4989531;28;20445;-88
2023/03/02 10:20:16;;;;;;;14.67;9.80;;;10.60;42.80;;;;;;5001255;28;20465;-86
2023/03/02 10:22:48;;;;;;;16.60;9.27;;;10.70;42.50;;;;;;4986188;28;20469;-87
2023/03/02 10:25:24;;;;;;;16.63;8.30;;;10.90;42.50;;;;;;5003002;28;20457;-87
2023/03/02 10:27:55;;;;;;;21.73;7.87;;;11.10;42.20;;;;;;4997263;28;20438;-86
2023/03/02 10:30:29;;;;;;;18.07;9.03;;;10.90;42.20;;;;;;4984201;28;20446;-87
2023/03/02 10:33:01;;;;;;;14.20;9.37;;;10.90;42.30;;;;;;5016660;28;20491;-86
2023/03/02 10:35:30;;;;;;;15.63;9.80;;;11.10;41.80;;;;;;5017168;28;20458;-87
2023/03/02 10:37:59;;;;;;;15.20;8.90;;;11.30;41.50;;;;;;4982601;28;21038;-88
2023/03/02 10:40:39;;;;;;;15.97;9.73;;;11.50;41.60;;;;;;5032947;28;20474;-86
2023/03/02 10:43:11;;;;;;;21.27;10.00;;;11.40;40.80;;;;;;5003130;28;20970;-88
2023/03/02 10:45:39;;;;;;;14.57;8.60;;;11.60;41.20;;;;;;4984410;28;20442;-89
2023/03/02 10:48:10;;;;;;;15.70;8.90;;;11.90;40.70;;;;;;5020785;28;20810;-88
2023/03/02 10:50:37;;;;;;;18.37;8.67;;;11.90;40.60;;;;;;5022664;28;20442;-86
2023/03/02 10:53:07;;;;;;;17.20;9.40;;;12.00;40.80;;;;;;4990873;28;20538;-86
2023/03/02 10:55:34;;;;;;;20.40;8.97;;;12.20;40.30;;;;;;5005992;28;20499;-87
2023/03/02 10:58:04;;;;;;;19.13;9.80;;;12.40;40.00;;;;;;5000423;28;20469;-86
2023/03/02 11:00:42;;;;;;;20.73;9.70;;;12.50;39.50;;;;;;4990893;28;20468;-86
2023/03/02 11:03:21;;;;;;;17.67;8.90;;;12.60;39.80;;;;;;4990140;28;20966;-86
2023/03/02 11:05:49;;;;;;;14.67;8.43;;;12.60;39.50;;;;;;5001535;28;20446;-87
2023/03/02 11:08:18;;;;;;;14.97;8.67;;;12.30;39.90;;;;;;5021983;28;20449;-85
2023/03/02 11:10:52;;;;;;;16.43;9.80;;;12.30;40.20;;;;;;5003547;28;20453;-87
2023/03/02 11:13:25;;;;;;;15.07;8.50;;;12.30;40.40;;;;;;5004043;28;20457;-86
2023/03/02 11:15:55;;;;;;;15.40;8.13;;;12.60;40.70;;;;;;5009741;28;21187;-86
2023/03/02 11:18:26;;;;;;;14.27;6.90;;;13.10;39.70;;;;;;4993454;28;20444;-85
2023/03/02 11:20:57;;;;;;;9.27;5.97;;;13.30;38.10;;;;;;5039060;28;20942;-86
2023/03/02 11:23:36;;;;;;;14.73;8.47;;;13.00;38.10;;;;;;5006965;28;20458;-85
2023/03/02 11:26:13;;;;;;;17.40;8.53;;;13.10;38.50;;;;;;5003658;28;20438;-86
2023/03/02 11:28:46;;;;;;;17.93;8.30;;;13.10;38.90;;;;;;4991001;28;20449;-86
2023/03/02 11:31:22;;;;;;;12.60;7.83;;;13.40;38.60;;;;;;5000802;28;20487;-86
2023/03/02 11:34:06;;;;;;;17.37;8.10;;;13.60;38.60;;;;;;5000847;28;20458;-85
2023/03/02 11:36:42;;;;;;;14.43;8.80;;;13.70;38.60;;;;;;5012350;28;20545;-86
2023/03/02 11:39:16;;;;;;;14.23;8.17;;;13.80;37.30;;;;;;5003459;28;20452;-86
2023/03/02 11:41:43;;;;;;;13.97;8.30;;;14.00;37.90;;;;;;5017252;28;20470;-86
2023/03/02 11:44:15;;;;;;;16.40;9.20;;;14.50;37.40;;;;;;5002613;28;20458;-86
2023/03/02 11:46:47;;;;;;;18.23;8.03;;;14.70;36.60;;;;;;4992455;28;20446;-86
2023/03/02 11:49:19;;;;;;;14.63;8.10;;;14.60;36.10;;;;;;4999946;28;20523;-86
2023/03/02 11:51:55;;;;;;;18.77;8.30;;;14.50;36.10;;;;;;5010288;28;20474;-85
2023/03/02 11:54:36;;;;;;;20.27;8.13;;;14.40;36.20;;;;;;5001918;28;20518;-85
2023/03/02 11:57:04;;;;;;;14.90;7.87;;;14.40;37.00;;;;;;5013640;28;20465;-86
2023/03/02 11:59:32;;;;;;;18.93;8.77;;;14.80;37.80;;;;;;5016279;28;20465;-86
2023/03/02 12:02:01;;;;;;;13.33;7.90;;;14.70;36.20;;;;;;5005152;28;20465;-86
2023/03/02 12:04:32;;;;;;;15.40;9.00;;;14.60;36.60;;;;;;4990710;28;20453;-84
2023/03/02 12:07:01;;;;;;;16.17;8.80;;;14.80;37.10;;;;;;5003283;28;20512;-86
2023/03/02 12:09:36;;;;;;;14.20;7.47;;;15.30;36.40;;;;;;5008887;28;20445;-86
2023/03/02 12:12:49;;;;;;;11.57;7.50;;;15.40;35.00;;;;;;4989608;28;20465;-86
2023/03/02 12:15:44;;;;;;;17.13;8.70;;;15.50;35.90;;;;;;4971555;28;20449;-86
2023/03/02 12:18:43;;;;;;;14.20;7.77;;;15.70;35.40;;;;;;4971875;28;20488;-87
2023/03/02 12:21:12;;;;;;;19.60;8.20;;;15.70;34.80;;;;;;5020788;28;20473;-86
2023/03/02 12:23:53;;;;;;;11.63;7.47;;;15.60;35.40;;;;;;5001077;28;20456;-88
2023/03/02 12:26:29;;;;;;;10.77;6.73;;;15.60;35.40;;;;;;5015731;28;20441;-86
2023/03/02 12:29:00;;;;;;;14.50;7.63;;;16.00;35.10;;;;;;5009775;28;20445;-85
2023/03/02 12:31:39;;;;;;;9.67;6.70;;;16.10;34.50;;;;;;5005847;28;20557;-86
2023/03/02 12:34:25;;;;;;;9.83;6.40;;;15.80;35.10;;;;;;5003501;28;20457;-88
2023/03/02 12:36:55;;;;;;;12.10;6.67;;;15.80;34.90;;;;;;5019966;28;20469;-88
2023/03/02 12:39:34;;;;;;;11.27;6.83;;;16.10;34.50;;;;;;5016236;28;20807;-86
2023/03/02 12:42:43;;;;;;;17.00;8.30;;;16.50;34.20;;;;;;4990516;28;20480;-87
2023/03/02 12:45:23;;;;;;;12.83;7.00;;;16.60;34.10;;;;;;5000318;28;20468;-88
2023/03/02 12:47:58;;;;;;;15.00;6.77;;;16.10;34.20;;;;;;5003917;28;20454;-88
2023/03/02 12:50:31;;;;;;;12.90;6.60;;;15.80;34.50;;;;;;5008468;28;20461;-86
2023/03/02 12:52:59;;;;;;;8.30;6.37;;;15.90;34.70;;;;;;5020396;28;20470;-86